Terminal Aerodrome Forecast
Issued by NWS Miami, FL

Home | Current Version | Previous Version | Text Only | Print | Product List | Glossary On
Versions: 1 2 3 4 5 6 7 8 9 10 11 12 13 14 15 16 17 18 19 20 21 22 23 24 25 26 27 28 29 30 31 32 33 34 35 36 37 38 39 40 41 42 43 44 45 46 47
000
FTUS42 KMFL 311503 AAA
TAFFLL
TAF AMD
KFLL 311503Z 3115/0112 VRB05KT P6SM VCSH FEW025 SCT040
     FM311600 09008KT P6SM VCTS SCT030CB BKN050
     FM312000 09010KT P6SM VCSH SCT030 SCT050
     FM010000 VRB03KT P6SM FEW025 SCT250=

USA.gov is the U.S. government's official web portal to all federal, state and local government web resources and services.